createdAt,value
2019-03-08T00:00:19.728Z,8.42
2019-03-08T00:01:19.649Z,8.43
2019-03-08T00:02:19.569Z,8.30
2019-03-08T00:03:19.486Z,8.30
2019-03-08T00:04:19.406Z,8.40
2019-03-08T00:05:19.325Z,8.32
2019-03-08T00:06:19.248Z,8.36
2019-03-08T00:07:19.164Z,8.32
2019-03-08T00:08:19.086Z,8.30
2019-03-08T00:09:19.007Z,8.40
2019-03-08T00:10:18.930Z,8.32
2019-03-08T00:11:18.844Z,8.32
2019-03-08T00:12:18.763Z,8.37
2019-03-08T00:13:18.684Z,8.30
2019-03-08T00:14:18.603Z,8.36
2019-03-08T00:15:18.522Z,8.27
2019-03-08T00:16:18.443Z,8.27
2019-03-08T00:17:18.367Z,8.27
2019-03-08T00:18:18.282Z,8.32
2019-03-08T00:19:18.200Z,8.36
2019-03-08T00:20:18.155Z,8.30
2019-03-08T00:21:18.042Z,8.22
2019-03-08T00:22:17.961Z,8.39
2019-03-08T00:23:17.880Z,8.27
2019-03-08T00:24:17.799Z,8.33
2019-03-08T00:25:17.722Z,8.29
2019-03-08T00:26:17.641Z,8.29
2019-03-08T00:27:17.562Z,8.24
2019-03-08T00:28:17.479Z,8.27
2019-03-08T00:29:17.399Z,8.29
2019-03-08T00:30:17.319Z,8.40
2019-03-08T00:31:17.240Z,8.48
2019-03-08T00:32:17.158Z,8.54
2019-03-08T00:33:17.077Z,8.50
2019-03-08T00:34:16.998Z,8.50
2019-03-08T00:35:16.917Z,8.51
2019-03-08T00:36:16.838Z,8.60
2019-03-08T00:37:16.758Z,8.58
2019-03-08T00:38:16.677Z,8.55
2019-03-08T00:39:16.596Z,8.57
2019-03-08T00:40:16.518Z,8.54
2019-03-08T00:41:16.440Z,8.58
2019-03-08T00:42:16.357Z,8.61
2019-03-08T00:43:16.275Z,8.55
2019-03-08T00:44:16.196Z,8.68
2019-03-08T00:45:16.116Z,8.69
2019-03-08T00:46:16.037Z,8.66
2019-03-08T00:47:15.956Z,8.68
2019-03-08T00:48:15.878Z,8.70
2019-03-08T00:49:15.799Z,8.62
2019-03-08T00:50:15.715Z,8.65
2019-03-08T00:51:15.637Z,8.68
2019-03-08T00:52:15.556Z,8.68
2019-03-08T00:53:15.826Z,8.76
2019-03-08T00:54:15.401Z,8.80
2019-03-08T00:55:15.316Z,8.88
2019-03-08T00:56:15.236Z,8.77
2019-03-08T00:57:15.156Z,8.77
2019-03-08T00:58:15.077Z,8.79
2019-03-08T00:59:14.995Z,8.77
2019-03-08T01:00:14.918Z,8.66
2019-03-08T01:01:14.878Z,8.72
2019-03-08T01:02:14.756Z,8.75
2019-03-08T01:03:14.674Z,8.66
2019-03-08T01:04:14.596Z,8.66
2019-03-08T01:05:14.517Z,8.72
2019-03-08T01:06:14.436Z,8.66
2019-03-08T01:07:14.355Z,8.75
2019-03-08T01:08:14.276Z,8.66
2019-03-08T01:09:14.196Z,8.77
2019-03-08T01:10:14.116Z,8.76
2019-03-08T01:11:14.036Z,8.77
2019-03-08T01:12:13.955Z,8.77
2019-03-08T01:13:13.977Z,8.69
2019-03-08T01:14:13.796Z,8.77
2019-03-08T01:15:13.714Z,8.70
2019-03-08T01:16:13.634Z,8.70
2019-03-08T01:17:13.555Z,8.70
2019-03-08T01:18:13.477Z,8.65
2019-03-08T01:19:13.394Z,8.62
2019-03-08T01:20:13.316Z,8.66
2019-03-08T01:21:13.235Z,8.65
2019-03-08T01:22:13.155Z,8.58
2019-03-08T01:23:13.126Z,8.65
2019-03-08T01:24:12.995Z,8.66
2019-03-08T01:25:12.915Z,8.68
2019-03-08T01:26:12.838Z,8.68
2019-03-08T01:27:12.754Z,8.68
2019-03-08T01:28:12.683Z,8.69
2019-03-08T01:29:12.598Z,8.54
2019-03-08T01:30:12.517Z,8.55
2019-03-08T01:31:12.437Z,8.42
2019-03-08T01:32:12.355Z,8.44
2019-03-08T01:33:12.282Z,8.57
2019-03-08T01:34:12.198Z,8.60
2019-03-08T01:35:12.116Z,8.60
2019-03-08T01:36:12.039Z,8.55
2019-03-08T01:37:11.955Z,8.58
2019-03-08T01:38:11.876Z,8.54
2019-03-08T01:39:12.147Z,8.55
2019-03-08T01:40:11.717Z,8.55
2019-03-08T01:41:11.636Z,8.54
2019-03-08T01:42:11.557Z,8.58
2019-03-08T01:43:11.476Z,8.60
2019-03-08T01:44:11.397Z,8.55
2019-03-08T01:45:11.315Z,8.72
2019-03-08T01:46:11.237Z,8.66
2019-03-08T01:47:11.156Z,8.69
2019-03-08T01:48:11.076Z,8.73
2019-03-08T01:49:10.996Z,8.76
2019-03-08T01:50:11.016Z,8.73
2019-03-08T01:51:10.835Z,8.77
2019-03-08T01:52:10.755Z,8.70
2019-03-08T01:53:10.676Z,8.70
2019-03-08T01:54:10.595Z,8.58
2019-03-08T01:55:10.513Z,8.61
2019-03-08T01:56:10.437Z,8.58
2019-03-08T01:57:10.356Z,8.62
2019-03-08T01:58:10.275Z,8.54
2019-03-08T01:59:10.195Z,8.57
2019-03-08T02:00:10.809Z,8.43
2019-03-08T02:01:10.034Z,8.43
2019-03-08T02:02:10.542Z,8.40
2019-03-08T02:03:09.875Z,8.39
2019-03-08T02:04:09.795Z,8.40
2019-03-08T02:05:09.713Z,8.50
2019-03-08T02:06:09.633Z,8.51
2019-03-08T02:07:09.554Z,8.51
2019-03-08T02:08:09.475Z,8.36
2019-03-08T02:09:09.392Z,8.25
2019-03-08T02:10:09.313Z,8.37
2019-03-08T02:11:09.232Z,8.48
2019-03-08T02:12:09.151Z,8.44
2019-03-08T02:13:09.071Z,8.39
2019-03-08T02:14:08.992Z,8.39
2019-03-08T02:15:08.916Z,8.39
2019-03-08T02:16:08.830Z,8.37
2019-03-08T02:17:08.752Z,8.42
2019-03-08T02:18:08.670Z,8.43
2019-03-08T02:19:08.589Z,8.44
2019-03-08T02:20:08.509Z,8.36
2019-03-08T02:21:08.431Z,8.40
2019-03-08T02:22:08.450Z,8.40
2019-03-08T02:23:08.267Z,8.37
2019-03-08T02:24:08.187Z,8.30
2019-03-08T02:25:08.108Z,8.29
2019-03-08T02:26:08.027Z,8.37
2019-03-08T02:27:07.946Z,8.43
2019-03-08T02:28:08.578Z,8.40
2019-03-08T02:29:07.785Z,8.52
2019-03-08T02:30:07.707Z,8.43
2019-03-08T02:31:07.625Z,8.47
2019-03-08T02:32:07.545Z,8.47
2019-03-08T02:33:07.465Z,8.43
2019-03-08T02:34:07.384Z,8.43
2019-03-08T02:35:07.305Z,8.43
2019-03-08T02:36:07.224Z,8.37
2019-03-08T02:37:07.144Z,8.47
2019-03-08T02:38:07.065Z,8.47
2019-03-08T02:39:06.984Z,8.44
2019-03-08T02:40:06.903Z,8.44
2019-03-08T02:41:06.823Z,8.42
2019-03-08T02:42:06.743Z,8.39
2019-03-08T02:43:06.660Z,8.43
2019-03-08T02:44:06.582Z,8.40
2019-03-08T02:45:06.502Z,8.40
2019-03-08T02:46:06.423Z,8.43
2019-03-08T02:47:06.341Z,8.44
2019-03-08T02:48:06.258Z,8.47
2019-03-08T02:49:06.450Z,8.39
2019-03-08T02:50:06.099Z,8.43
2019-03-08T02:51:06.017Z,8.40
2019-03-08T02:52:05.938Z,8.40
2019-03-08T02:53:05.857Z,8.39
2019-03-08T02:54:05.778Z,8.40
2019-03-08T02:55:05.697Z,8.36
2019-03-08T02:56:05.616Z,8.33
2019-03-08T02:57:05.536Z,8.39
2019-03-08T02:58:05.455Z,8.37
2019-03-08T02:59:05.475Z,8.30
2019-03-08T03:00:05.295Z,8.25
2019-03-08T03:01:05.219Z,8.27
2019-03-08T03:02:05.134Z,8.27
2019-03-08T03:03:05.053Z,8.29
2019-03-08T03:04:05.023Z,8.22
2019-03-08T03:05:04.893Z,8.22
2019-03-08T03:06:04.816Z,8.22
2019-03-08T03:07:04.730Z,8.22
2019-03-08T03:08:04.652Z,8.19
2019-03-08T03:09:04.570Z,8.22
2019-03-08T03:10:04.489Z,8.14
2019-03-08T03:11:04.409Z,8.21
2019-03-08T03:12:04.327Z,8.17
2019-03-08T03:13:04.247Z,8.21
2019-03-08T03:14:04.168Z,8.19
2019-03-08T03:15:04.087Z,8.19
2019-03-08T03:16:04.005Z,8.21
2019-03-08T03:17:03.926Z,8.24
2019-03-08T03:18:03.847Z,8.18
2019-03-08T03:19:03.764Z,8.19
2019-03-08T03:20:03.686Z,8.22
2019-03-08T03:21:03.602Z,8.15
2019-03-08T03:22:03.523Z,8.14
2019-03-08T03:23:03.443Z,8.14
2019-03-08T03:24:03.361Z,8.15
2019-03-08T03:25:03.280Z,8.12
2019-03-08T03:26:03.201Z,8.14
2019-03-08T03:27:03.119Z,8.07
2019-03-08T03:28:03.041Z,8.11
2019-03-08T03:29:02.959Z,8.18
2019-03-08T03:30:02.878Z,8.21
2019-03-08T03:31:02.798Z,8.11
2019-03-08T03:32:02.716Z,8.04
2019-03-08T03:33:02.635Z,8.01
2019-03-08T03:34:02.554Z,8.06
2019-03-08T03:35:02.472Z,8.07
2019-03-08T03:36:02.392Z,8.00
2019-03-08T03:37:02.310Z,8.07
2019-03-08T03:38:02.231Z,8.01
2019-03-08T03:39:02.153Z,8.00
2019-03-08T03:40:02.068Z,7.94
2019-03-08T03:41:01.988Z,7.83
2019-03-08T03:42:01.908Z,7.83
2019-03-08T03:43:01.825Z,7.86
2019-03-08T03:44:01.745Z,7.99
2019-03-08T03:45:01.665Z,7.97
2019-03-08T03:46:01.603Z,7.91
2019-03-08T03:47:01.550Z,7.86
2019-03-08T03:48:01.423Z,7.81
2019-03-08T03:49:01.341Z,7.88
2019-03-08T03:50:01.260Z,7.86
2019-03-08T03:51:01.178Z,7.73
2019-03-08T03:52:01.146Z,7.73
2019-03-08T03:53:01.019Z,7.85
2019-03-08T03:54:00.936Z,7.94
2019-03-08T03:55:00.854Z,8.00
2019-03-08T03:56:00.774Z,7.86
2019-03-08T03:57:00.792Z,7.93
2019-03-08T03:58:00.613Z,8.03
2019-03-08T03:59:00.530Z,7.91
2019-03-08T04:00:00.450Z,7.90
2019-03-08T04:01:00.372Z,7.97
2019-03-08T04:02:00.287Z,7.99
2019-03-08T04:03:00.207Z,7.96
2019-03-08T04:04:00.130Z,7.93
2019-03-08T04:05:00.044Z,7.86
2019-03-08T04:05:59.964Z,7.90
2019-03-08T04:06:59.883Z,7.79
2019-03-08T04:07:59.802Z,7.73
2019-03-08T04:08:59.723Z,7.79
2019-03-08T04:09:59.642Z,7.76
2019-03-08T04:10:59.558Z,7.93
2019-03-08T04:11:59.478Z,7.86
2019-03-08T04:12:59.447Z,7.88
2019-03-08T04:13:59.316Z,7.82
2019-03-08T04:14:59.236Z,7.73
2019-03-08T04:15:59.155Z,7.91
2019-03-08T04:16:59.074Z,7.85
2019-03-08T04:17:58.993Z,7.90
2019-03-08T04:18:58.912Z,7.85
2019-03-08T04:19:58.862Z,8.03
2019-03-08T04:20:58.749Z,7.83
2019-03-08T04:21:58.668Z,7.82
2019-03-08T04:22:58.688Z,7.72
2019-03-08T04:23:58.507Z,7.81
2019-03-08T04:24:58.426Z,7.82
2019-03-08T04:25:58.345Z,7.81
2019-03-08T04:26:58.263Z,7.73
2019-03-08T04:27:58.181Z,7.73
2019-03-08T04:28:58.101Z,7.75
2019-03-08T04:29:58.022Z,7.88
2019-03-08T04:30:57.939Z,7.97
2019-03-08T04:31:57.857Z,7.86
2019-03-08T04:32:57.777Z,7.85
2019-03-08T04:33:57.797Z,7.88
2019-03-08T04:34:57.614Z,7.78
2019-03-08T04:35:57.533Z,7.86
2019-03-08T04:36:57.457Z,7.78
2019-03-08T04:37:57.386Z,7.76
2019-03-08T04:38:57.290Z,7.73
2019-03-08T04:39:57.208Z,7.78
2019-03-08T04:40:57.127Z,7.72
2019-03-08T04:41:57.046Z,7.81
2019-03-08T04:42:56.966Z,7.75
2019-03-08T04:43:56.885Z,7.72
2019-03-08T04:44:56.803Z,7.63
2019-03-08T04:45:56.722Z,7.63
2019-03-08T04:46:56.641Z,7.63
2019-03-08T04:47:56.560Z,7.55
2019-03-08T04:48:56.479Z,7.52
2019-03-08T04:49:56.400Z,7.62
2019-03-08T04:50:56.315Z,7.63
2019-03-08T04:51:56.235Z,7.68
2019-03-08T04:52:56.153Z,7.75
2019-03-08T04:53:56.073Z,7.76
2019-03-08T04:54:55.998Z,7.73
2019-03-08T04:55:55.912Z,7.70
2019-03-08T04:56:55.830Z,7.76
2019-03-08T04:57:55.750Z,7.83
2019-03-08T04:58:55.668Z,7.72
2019-03-08T04:59:55.587Z,7.78
2019-03-08T05:00:55.507Z,7.86
2019-03-08T05:01:55.430Z,7.67
2019-03-08T05:02:55.343Z,7.76
2019-03-08T05:03:55.264Z,7.78
2019-03-08T05:04:55.210Z,7.75
2019-03-08T05:05:55.102Z,7.79
2019-03-08T05:06:55.019Z,7.78
2019-03-08T05:07:54.941Z,7.88
2019-03-08T05:08:54.859Z,7.88
2019-03-08T05:09:54.778Z,7.85
2019-03-08T05:10:54.698Z,7.81
2019-03-08T05:11:54.620Z,7.79
2019-03-08T05:12:54.534Z,7.76
2019-03-08T05:13:54.455Z,7.75
2019-03-08T05:14:54.373Z,7.75
2019-03-08T05:15:54.293Z,7.70
2019-03-08T05:16:54.210Z,7.76
2019-03-08T05:17:54.131Z,7.67
2019-03-08T05:18:54.049Z,7.64
2019-03-08T05:19:53.969Z,7.60
2019-03-08T05:20:53.887Z,7.70
2019-03-08T05:21:53.805Z,7.70
2019-03-08T05:22:53.728Z,7.70
2019-03-08T05:23:53.643Z,7.64
2019-03-08T05:24:53.562Z,7.68
2019-03-08T05:25:53.482Z,7.72
2019-03-08T05:26:53.399Z,7.70
2019-03-08T05:27:53.323Z,7.81
2019-03-08T05:28:53.248Z,7.68
2019-03-08T05:29:53.182Z,7.85
2019-03-08T05:30:53.076Z,7.83
2019-03-08T05:31:52.994Z,7.86
2019-03-08T05:32:52.913Z,7.86
2019-03-08T05:33:52.832Z,7.88
2019-03-08T05:34:52.750Z,7.90
2019-03-08T05:35:52.672Z,7.85
2019-03-08T05:36:52.589Z,7.86
2019-03-08T05:37:52.508Z,7.83
2019-03-08T05:38:52.424Z,7.97
2019-03-08T05:39:52.346Z,7.93
2019-03-08T05:40:52.263Z,7.81
2019-03-08T05:41:52.184Z,7.76
2019-03-08T05:42:52.100Z,7.76
2019-03-08T05:43:52.020Z,7.78
2019-03-08T05:44:51.939Z,7.78
2019-03-08T05:45:51.880Z,7.73
2019-03-08T05:46:51.776Z,7.81
2019-03-08T05:47:51.694Z,7.73
2019-03-08T05:48:51.614Z,7.76
2019-03-08T05:49:51.533Z,7.68
2019-03-08T05:50:51.451Z,7.81
2019-03-08T05:51:51.371Z,7.75
2019-03-08T05:52:51.291Z,7.75
2019-03-08T05:53:51.210Z,7.75
2019-03-08T05:54:51.130Z,7.83
2019-03-08T05:55:51.046Z,7.90
2019-03-08T05:56:50.967Z,7.86
2019-03-08T05:57:50.887Z,7.88
2019-03-08T05:58:50.823Z,7.90
2019-03-08T05:59:50.727Z,7.85
2019-03-08T06:00:50.643Z,7.86
2019-03-08T06:01:50.562Z,7.88
2019-03-08T06:02:50.480Z,7.86
2019-03-08T06:03:50.400Z,7.88
2019-03-08T06:04:50.354Z,7.91
2019-03-08T06:05:50.237Z,7.94
2019-03-08T06:06:50.155Z,7.86
2019-03-08T06:07:50.076Z,7.99
2019-03-08T06:08:49.995Z,8.00
2019-03-08T06:09:49.914Z,7.97
2019-03-08T06:10:49.838Z,7.96
2019-03-08T06:11:49.751Z,7.96
2019-03-08T06:12:49.669Z,7.94
2019-03-08T06:13:49.590Z,7.97
2019-03-08T06:14:49.509Z,7.90
2019-03-08T06:15:49.427Z,7.96
2019-03-08T06:16:49.347Z,7.82
2019-03-08T06:17:49.268Z,7.86
2019-03-08T06:18:49.185Z,7.86
2019-03-08T06:19:49.108Z,7.83
2019-03-08T06:20:49.023Z,7.85
2019-03-08T06:21:48.944Z,7.86
2019-03-08T06:22:48.861Z,7.88
2019-03-08T06:23:48.787Z,7.96
2019-03-08T06:24:48.700Z,7.97
2019-03-08T06:25:48.623Z,7.90
2019-03-08T06:26:48.538Z,7.85
2019-03-08T06:27:48.457Z,8.00
2019-03-08T06:28:48.382Z,7.90
2019-03-08T06:29:48.296Z,7.97
2019-03-08T06:30:48.215Z,7.97
2019-03-08T06:31:48.137Z,8.04
2019-03-08T06:32:48.054Z,8.04
2019-03-08T06:33:47.972Z,8.04
2019-03-08T06:34:47.894Z,8.01
2019-03-08T06:35:47.811Z,8.01
2019-03-08T06:36:47.731Z,8.04
2019-03-08T06:37:47.651Z,8.04
2019-03-08T06:38:47.575Z,8.11
2019-03-08T06:39:47.490Z,8.12
2019-03-08T06:40:47.408Z,8.09
2019-03-08T06:41:47.328Z,8.11
2019-03-08T06:42:47.247Z,8.14
2019-03-08T06:43:47.165Z,8.19
2019-03-08T06:44:47.087Z,8.14
2019-03-08T06:45:47.006Z,8.19
2019-03-08T06:46:46.923Z,8.21
2019-03-08T06:47:46.844Z,8.24
2019-03-08T06:48:46.863Z,8.24
2019-03-08T06:49:46.683Z,8.21
2019-03-08T06:50:46.601Z,8.19
2019-03-08T06:51:46.521Z,8.21
2019-03-08T06:52:46.439Z,8.22
2019-03-08T06:53:46.360Z,8.24
2019-03-08T06:54:46.279Z,8.25
2019-03-08T06:55:46.197Z,8.27
2019-03-08T06:56:46.118Z,8.27
2019-03-08T06:57:46.041Z,8.24
2019-03-08T06:58:45.959Z,8.18
2019-03-08T06:59:45.876Z,8.27
2019-03-08T07:00:45.796Z,8.24
2019-03-08T07:01:45.714Z,8.32
2019-03-08T07:02:45.634Z,8.30
2019-03-08T07:03:45.554Z,8.18
2019-03-08T07:04:45.476Z,8.21
2019-03-08T07:05:45.393Z,8.32
2019-03-08T07:06:45.312Z,8.21
2019-03-08T07:07:45.233Z,8.19
2019-03-08T07:08:45.151Z,8.32
2019-03-08T07:09:45.073Z,8.27
2019-03-08T07:10:44.990Z,8.34
2019-03-08T07:11:44.909Z,8.25
2019-03-08T07:12:44.831Z,8.22
2019-03-08T07:13:44.751Z,8.22
2019-03-08T07:14:44.668Z,8.24
2019-03-08T07:15:44.589Z,8.17
2019-03-08T07:16:44.512Z,8.22
2019-03-08T07:17:44.429Z,8.24
2019-03-08T07:18:44.346Z,8.27
2019-03-08T07:19:44.369Z,8.24
2019-03-08T07:20:44.203Z,8.21
2019-03-08T07:21:44.109Z,8.17
2019-03-08T07:22:44.025Z,8.27
2019-03-08T07:23:43.946Z,8.21
2019-03-08T07:24:43.965Z,8.21
2019-03-08T07:25:51.220Z,8.24
2019-03-08T07:26:43.706Z,8.27
2019-03-08T07:27:43.624Z,8.29
2019-03-08T07:28:43.547Z,8.21
2019-03-08T07:29:43.464Z,8.30
2019-03-08T07:30:43.382Z,8.37
2019-03-08T07:31:43.303Z,8.25
2019-03-08T07:32:43.221Z,8.32
2019-03-08T07:33:52.693Z,8.43
2019-03-08T07:34:43.062Z,8.43
2019-03-08T07:35:42.981Z,8.39
2019-03-08T07:36:42.901Z,8.43
2019-03-08T07:37:42.821Z,8.50
2019-03-08T07:38:42.740Z,8.48
2019-03-08T07:39:42.662Z,8.48
2019-03-08T07:40:42.601Z,8.51
2019-03-08T07:41:42.503Z,8.50
2019-03-08T07:42:42.424Z,8.54
2019-03-08T07:43:42.339Z,8.69
2019-03-08T07:44:42.261Z,8.66
2019-03-08T07:45:44.259Z,8.77
2019-03-08T07:46:42.099Z,8.75
2019-03-08T07:47:42.018Z,8.73
2019-03-08T07:48:41.941Z,8.80
2019-03-08T07:49:41.860Z,8.84
2019-03-08T07:50:41.779Z,8.68
2019-03-08T07:51:41.699Z,8.66
2019-03-08T07:52:41.618Z,8.73
2019-03-08T07:53:41.540Z,8.68
2019-03-08T07:54:41.459Z,8.69
2019-03-08T07:55:41.379Z,8.66
2019-03-08T07:56:41.300Z,8.75
2019-03-08T07:57:41.219Z,8.76
2019-03-08T07:58:41.147Z,8.79
2019-03-08T07:59:41.064Z,8.77
2019-03-08T08:00:40.980Z,8.70
2019-03-08T08:01:40.901Z,8.69
2019-03-08T08:02:40.819Z,8.75
2019-03-08T08:03:40.741Z,8.82
2019-03-08T08:04:40.660Z,8.79
2019-03-08T08:05:40.581Z,8.88
2019-03-08T08:06:40.502Z,8.87
2019-03-08T08:07:40.422Z,8.93
2019-03-08T08:08:40.343Z,8.95
2019-03-08T08:09:40.264Z,8.98
2019-03-08T08:10:40.188Z,9.03
2019-03-08T08:11:40.102Z,8.90
2019-03-08T08:12:40.024Z,8.98
2019-03-08T08:13:39.944Z,8.95
2019-03-08T08:14:40.052Z,9.00
2019-03-08T08:15:39.784Z,9.00
2019-03-08T08:16:39.706Z,8.98
2019-03-08T08:17:39.627Z,9.03
2019-03-08T08:18:39.545Z,9.16
2019-03-08T08:19:39.466Z,9.16
2019-03-08T08:20:39.388Z,9.24
2019-03-08T08:21:39.310Z,9.24
2019-03-08T08:22:39.228Z,9.27
2019-03-08T08:23:39.148Z,9.22
2019-03-08T08:24:39.068Z,9.16
2019-03-08T08:25:38.990Z,9.06
2019-03-08T08:26:38.914Z,9.22
2019-03-08T08:27:38.831Z,9.29
2019-03-08T08:28:38.752Z,9.28
2019-03-08T08:29:38.673Z,9.27
2019-03-08T08:30:38.594Z,9.22
2019-03-08T08:31:38.516Z,9.25
2019-03-08T08:32:38.434Z,9.19
2019-03-08T08:33:38.355Z,9.28
2019-03-08T08:34:38.274Z,9.34
2019-03-08T08:35:38.197Z,9.38
2019-03-08T08:36:38.118Z,9.29
2019-03-08T08:37:38.039Z,9.35
2019-03-08T08:38:37.960Z,9.47
2019-03-08T08:39:37.880Z,9.43
2019-03-08T08:40:37.800Z,9.43
2019-03-08T08:41:37.723Z,9.40
2019-03-08T08:42:37.643Z,9.42
2019-03-08T08:43:37.563Z,9.49
2019-03-08T08:44:37.484Z,9.49
2019-03-08T08:45:37.407Z,9.40
2019-03-08T08:46:37.325Z,9.45
2019-03-08T08:47:37.246Z,9.49
2019-03-08T08:48:37.168Z,9.52
2019-03-08T08:49:37.089Z,9.46
2019-03-08T08:50:37.010Z,9.45
2019-03-08T08:51:36.932Z,9.47
2019-03-08T08:52:36.853Z,9.49
2019-03-08T08:53:36.788Z,9.43
2019-03-08T08:54:36.693Z,9.42
2019-03-08T08:55:36.615Z,9.55
2019-03-08T08:56:36.537Z,9.46
2019-03-08T08:57:36.459Z,9.42
2019-03-08T08:58:36.379Z,9.42
2019-03-08T08:59:36.300Z,9.37
2019-03-08T09:00:36.222Z,9.40
2019-03-08T09:01:36.144Z,9.43
2019-03-08T09:02:36.065Z,9.49
2019-03-08T09:03:35.985Z,9.38
2019-03-08T09:04:35.906Z,9.42
2019-03-08T09:05:35.828Z,9.38
2019-03-08T09:06:35.778Z,9.43
2019-03-08T09:07:35.669Z,9.42
2019-03-08T09:08:35.591Z,9.52
2019-03-08T09:09:35.542Z,9.55
2019-03-08T09:10:35.432Z,9.56
2019-03-08T09:11:44.103Z,9.47
2019-03-08T09:12:35.276Z,9.58
2019-03-08T09:13:35.195Z,9.58
2019-03-08T09:14:35.119Z,9.64
2019-03-08T09:15:35.038Z,9.70
2019-03-08T09:16:34.961Z,9.70
2019-03-08T09:17:34.881Z,9.78
2019-03-08T09:18:34.801Z,9.79
2019-03-08T09:19:34.724Z,9.64
2019-03-08T09:20:34.646Z,9.67
2019-03-08T09:21:34.567Z,9.58
2019-03-08T09:22:34.487Z,9.58
2019-03-08T09:23:34.410Z,9.64
2019-03-08T09:24:34.331Z,9.56
2019-03-08T09:25:34.253Z,9.61
2019-03-08T09:26:34.172Z,9.46
2019-03-08T09:27:34.094Z,9.46
2019-03-08T09:28:34.016Z,9.50
2019-03-08T09:29:40.982Z,9.53
2019-03-08T09:30:33.858Z,9.52
2019-03-08T09:31:33.779Z,9.53
2019-03-08T09:32:33.699Z,9.55
2019-03-08T09:33:33.622Z,9.53
2019-03-08T09:34:33.542Z,9.53
2019-03-08T09:35:33.465Z,9.43
2019-03-08T09:36:33.386Z,9.42
2019-03-08T09:37:33.310Z,9.47
2019-03-08T09:38:33.228Z,9.45
2019-03-08T09:39:33.149Z,9.45
2019-03-08T09:40:33.070Z,9.40
2019-03-08T09:41:32.995Z,9.43
2019-03-08T09:42:32.911Z,9.42
2019-03-08T09:43:32.834Z,9.34
2019-03-08T09:44:32.754Z,9.32
2019-03-08T09:45:32.676Z,9.27
2019-03-08T09:46:32.596Z,9.20
2019-03-08T09:47:32.517Z,9.14
2019-03-08T09:48:32.439Z,9.13
2019-03-08T09:49:32.359Z,9.16
2019-03-08T09:50:32.279Z,9.17
2019-03-08T09:51:32.200Z,9.27
2019-03-08T09:52:32.560Z,9.19
2019-03-08T09:53:32.046Z,9.20
2019-03-08T09:54:31.962Z,9.25
2019-03-08T09:55:31.884Z,9.19
2019-03-08T09:56:31.805Z,9.14
2019-03-08T09:57:31.725Z,9.12
2019-03-08T09:58:31.646Z,9.14
2019-03-08T09:59:31.569Z,9.09
2019-03-08T10:00:31.489Z,9.17
2019-03-08T10:01:31.408Z,9.00
2019-03-08T10:02:31.330Z,8.90
2019-03-08T10:03:31.251Z,8.88
2019-03-08T10:04:31.172Z,8.85
2019-03-08T10:05:31.093Z,8.87
2019-03-08T10:06:31.014Z,8.77
2019-03-08T10:07:30.934Z,8.73
2019-03-08T10:08:30.856Z,8.66
2019-03-08T10:09:30.775Z,8.70
2019-03-08T10:10:30.696Z,8.65
2019-03-08T10:11:30.616Z,8.61
2019-03-08T10:12:30.538Z,8.58
2019-03-08T10:13:30.462Z,8.52
2019-03-08T10:14:30.379Z,8.52
2019-03-08T10:15:30.300Z,8.47
2019-03-08T10:16:30.221Z,8.44
2019-03-08T10:17:30.142Z,8.42
2019-03-08T10:18:30.063Z,8.39
2019-03-08T10:19:29.986Z,8.39
2019-03-08T10:20:29.904Z,8.33
2019-03-08T10:21:29.823Z,8.34
2019-03-08T10:22:29.743Z,8.21
2019-03-08T10:23:29.665Z,8.30
2019-03-08T10:24:29.585Z,8.29
2019-03-08T10:25:29.507Z,8.30
2019-03-08T10:26:29.425Z,8.29
2019-03-08T10:27:37.833Z,8.18
2019-03-08T10:28:29.269Z,8.21
2019-03-08T10:29:29.188Z,8.19
2019-03-08T10:30:29.107Z,8.17
2019-03-08T10:31:29.028Z,8.09
2019-03-08T10:32:37.083Z,8.12
2019-03-08T10:33:28.983Z,8.04
2019-03-08T10:34:28.786Z,8.14
2019-03-08T10:35:28.706Z,8.04
2019-03-08T10:36:28.628Z,8.11
2019-03-08T10:37:28.547Z,8.01
2019-03-08T10:38:28.466Z,8.06
2019-03-08T10:39:28.387Z,8.01
2019-03-08T10:40:28.306Z,8.03
2019-03-08T10:41:28.227Z,8.01
2019-03-08T10:42:28.146Z,8.00
2019-03-08T10:43:28.066Z,8.03
2019-03-08T10:44:27.986Z,8.07
2019-03-08T10:45:27.906Z,8.07
2019-03-08T10:46:27.824Z,8.01
2019-03-08T10:47:27.744Z,8.07
2019-03-08T10:48:27.666Z,7.94
2019-03-08T10:49:27.586Z,7.93
2019-03-08T10:50:27.506Z,7.83
2019-03-08T10:51:27.424Z,7.86
2019-03-08T10:52:27.347Z,7.79
2019-03-08T10:53:27.265Z,7.75
2019-03-08T10:54:27.185Z,7.73
2019-03-08T10:55:27.103Z,7.79
2019-03-08T10:56:27.023Z,7.79
2019-03-08T10:57:26.943Z,7.73
2019-03-08T10:58:26.862Z,7.93
2019-03-08T10:59:26.782Z,7.86
2019-03-08T11:00:26.702Z,7.97
2019-03-08T11:01:26.621Z,8.07
2019-03-08T11:02:26.543Z,8.11
2019-03-08T11:03:26.464Z,8.14
2019-03-08T11:04:26.381Z,8.15
2019-03-08T11:05:26.302Z,8.21
2019-03-08T11:06:26.220Z,8.21
2019-03-08T11:07:26.139Z,8.30
2019-03-08T11:08:29.834Z,8.33
2019-03-08T11:09:25.980Z,8.29
2019-03-08T11:10:25.900Z,8.39
2019-03-08T11:11:25.820Z,8.36
2019-03-08T11:12:25.739Z,8.58
2019-03-08T11:13:25.663Z,8.75
2019-03-08T11:14:25.580Z,8.66
2019-03-08T11:15:25.506Z,8.65
2019-03-08T11:16:25.421Z,8.69
2019-03-08T11:17:25.346Z,8.77
2019-03-08T11:18:25.263Z,8.79
2019-03-08T11:19:25.184Z,8.77
2019-03-08T11:20:25.104Z,8.88
2019-03-08T11:21:25.024Z,8.82
2019-03-08T11:22:24.945Z,8.85
2019-03-08T11:23:24.866Z,8.91
2019-03-08T11:24:24.786Z,8.84
2019-03-08T11:25:24.707Z,9.05
2019-03-08T11:26:24.628Z,8.93
2019-03-08T11:27:24.550Z,9.05
2019-03-08T11:28:24.471Z,8.84
2019-03-08T11:29:24.393Z,8.84
2019-03-08T11:30:24.316Z,8.69
2019-03-08T11:31:24.235Z,8.75
2019-03-08T11:32:24.158Z,8.72
2019-03-08T11:33:24.078Z,8.87
2019-03-08T11:34:25.417Z,8.84
2019-03-08T11:35:23.919Z,8.88
2019-03-08T11:36:23.841Z,8.91
2019-03-08T11:37:23.762Z,8.91
2019-03-08T11:38:23.683Z,8.91
2019-03-08T11:39:23.604Z,8.95
2019-03-08T11:40:23.526Z,8.97
2019-03-08T11:41:23.447Z,8.94
2019-03-08T11:42:23.381Z,8.95
2019-03-08T11:43:23.289Z,8.87
2019-03-08T11:44:23.210Z,8.90
2019-03-08T11:45:23.133Z,8.90
2019-03-08T11:46:23.052Z,8.82
2019-03-08T11:47:22.973Z,8.91
2019-03-08T11:48:22.898Z,8.95
2019-03-08T11:49:22.816Z,8.87
2019-03-08T11:50:22.737Z,8.87
2019-03-08T11:51:22.658Z,8.90
2019-03-08T11:52:22.579Z,8.82
2019-03-08T11:53:22.501Z,8.69
2019-03-08T11:54:22.421Z,8.73
2019-03-08T11:55:22.342Z,8.77
2019-03-08T11:56:22.264Z,8.79
2019-03-08T11:57:22.184Z,8.77
2019-03-08T11:58:22.105Z,8.76
2019-03-08T11:59:22.026Z,8.66
2019-03-08T12:00:21.947Z,8.70
2019-03-08T12:01:21.868Z,8.72
2019-03-08T12:02:21.787Z,8.69
2019-03-08T12:03:21.709Z,8.60
2019-03-08T12:04:21.631Z,8.57
2019-03-08T12:05:21.553Z,8.58
2019-03-08T12:06:21.472Z,8.58
2019-03-08T12:07:21.395Z,8.52
2019-03-08T12:08:21.314Z,8.55
2019-03-08T12:09:21.236Z,8.52
2019-03-08T12:10:21.153Z,8.39
2019-03-08T12:11:21.076Z,8.40
2019-03-08T12:12:20.996Z,8.37
2019-03-08T12:13:20.924Z,8.39
2019-03-08T12:14:20.837Z,8.48
2019-03-08T12:15:20.759Z,8.57
2019-03-08T12:16:20.679Z,8.47
2019-03-08T12:17:20.599Z,8.57
2019-03-08T12:18:20.519Z,8.54
2019-03-08T12:19:20.441Z,8.66
2019-03-08T12:20:20.360Z,8.68
2019-03-08T12:21:20.285Z,8.69
2019-03-08T12:22:20.201Z,8.66
2019-03-08T12:23:20.124Z,8.79
2019-03-08T12:24:20.044Z,8.87
2019-03-08T12:25:19.968Z,8.94
2019-03-08T12:26:19.897Z,8.93
2019-03-08T12:27:19.805Z,9.05
2019-03-08T12:28:19.729Z,8.97
2019-03-08T12:29:19.650Z,8.95
2019-03-08T12:30:19.569Z,9.02
2019-03-08T12:31:19.492Z,8.93
2019-03-08T12:32:19.412Z,9.02
2019-03-08T12:33:19.335Z,8.80
2019-03-08T12:34:19.254Z,8.90
2019-03-08T12:35:19.181Z,8.90
2019-03-08T12:36:19.097Z,8.79
2019-03-08T12:37:19.020Z,8.90
2019-03-08T12:38:18.937Z,8.69
2019-03-08T12:39:18.865Z,8.55
2019-03-08T12:40:18.782Z,8.52
2019-03-08T12:41:18.709Z,8.48
2019-03-08T12:42:18.623Z,8.50
2019-03-08T12:43:18.544Z,8.51
2019-03-08T12:44:18.467Z,8.51
2019-03-08T12:45:18.390Z,8.61
2019-03-08T12:46:18.308Z,8.69
2019-03-08T12:47:18.231Z,8.65
2019-03-08T12:48:23.885Z,8.98
2019-03-08T12:49:18.073Z,8.98
2019-03-08T12:50:17.991Z,9.56
2019-03-08T12:51:17.912Z,10.58
2019-03-08T12:52:17.834Z,11.53
2019-03-08T12:53:17.755Z,12.81
2019-03-08T12:54:19.499Z,12.16
2019-03-08T12:55:17.600Z,12.41
2019-03-08T12:56:17.523Z,12.05
2019-03-08T12:57:17.447Z,12.63
2019-03-08T12:58:17.371Z,13.29
2019-03-08T12:59:17.295Z,14.09
2019-03-08T13:00:17.219Z,14.68
2019-03-08T13:01:17.149Z,14.23
2019-03-08T13:02:17.078Z,13.62
2019-03-08T13:03:16.999Z,12.85
2019-03-08T13:04:16.926Z,12.53
2019-03-08T13:05:16.854Z,12.34
2019-03-08T13:06:16.781Z,11.90
2019-03-08T13:07:16.710Z,11.69
2019-03-08T13:08:16.636Z,11.81
2019-03-08T13:09:16.563Z,11.59
2019-03-08T13:10:16.491Z,10.98
2019-03-08T13:11:16.418Z,10.81
2019-03-08T13:12:16.346Z,10.78
2019-03-08T13:13:16.273Z,10.66
2019-03-08T13:14:16.199Z,10.37
2019-03-08T13:15:16.128Z,10.21
2019-03-08T13:16:16.052Z,10.01